Racecast

Aaron Modrow

Southeast Missouri (MO) · Sr · NCAA DIMIDWESTOHIO VALLEY · Compare head to head

Athlete rating 102.2 2024 TF season
Best race 118.8 XC
Races 63
Seasons 6 2019 — 2024

RankedNation #10710·NCAA DI #4667·MIDWEST #1379·OHIO VALLEY #144·IL #434·Team #25 ?

Rating scale ?

Cross Country

2023 XC 106.3

Southeast Missouri (MO) · Grade Sr

Date Meet Event Result Place Rating Difficulty PR/SR Flags
2023-10-28 Broomfield County Commons Park 8000m 26:42.1 73rd · 7th on team 109.1 -0.113 ★CR SR CSR RSR
2023-10-13 Angel Mounds State Park 8000m 27:07.6 61st · 6th on team 107.8 -0.122 ★CR SR CSR RSR
2023-09-29 Gans Creek Recreation Area 8000m 27:52.1 169th · 8th on team 104.1 -0.138 ★CR CSR
2023-09-16 Laverne Gibson Course 8000m 27:36.8 161st · 7th on team 104.1 -0.131 ★CR SR CSR RSR

2022 XC

SE Missouri (MO) · Grade JR-3

Date Meet Event Result Place Rating Difficulty PR/SR Flags
2022-11-11 Gans Creek Cross Country Course 10000m 31:37.5 124th · 1st on team -0.109 ★PR ★CR SR CSR
2022-10-29 Putnam Co. Sports Complex 8000m 26:15.5 24th · 2nd on team -0.104 ★CR CSR
2022-10-14 Newman Golf Course 8000m 24:58.7 110th · 1st on team -0.141 ★PR ★CR SR CSR
2022-10-01 E.P. Tom Sawyer Park 8000m 26:13.9 249th · 6th on team -0.142 CSR
2022-09-23 McKendree University XC Course 8000m 25:47.6 4th · 3rd on team ★CR SR CSR
2022-09-02 Osage Park 6000m 18:46.2 7th · 3rd on team -0.113 ★PR ★CR SR CSR

2021 XC

Southeast Missouri (MO) · Grade Jr

Date Meet Event Result Place Rating Difficulty PR/SR Flags
2021-11-12 Ashton Cross Country Course 10000m -0.084 ★CR SR CSR
2021-10-30 Percy Warner Park 8000m 26:46.5 40th · 4th on team -0.119 ★CR CSR
2021-10-15 Putnam County Athletic Complex 8000m -0.089 ★CR CSR
2021-10-01 E.P. Tom Sawyer Park 8000m 25:22 20th · 2nd on team -0.142 ★CR SR CSR
2021-09-17 Weibring Golf Club 8000m 26:28.3 69th · 5th on team -0.139 ★CR SR CSR
2021-09-03 UTM Pacer Pond CC Course 6437m 19:53.5 4th · 1st on team -0.102 ★PR ★CR SR CSR

2020 XC 115.2

Southeast Missouri (MO) · Grade So

Date Meet Event Result Place Rating Difficulty PR/SR Flags
2021-03-01 Weakley Park 8000m 29:53.4 40th · 5th on team 110.2 -0.027 ★CR CSR
2021-02-19 Tennessee Tech Golden Eagle Golf Club 7242m 23:37.2 8th · 1st on team 118.8 -0.085 ★PR ★CR ★R SR CSR RSR
2021-02-06 Eastern Illinois University 8000m 25:58.4 15th · 1st on team 113.5 -0.128 ★CR CSR
2021-01-23 Osage Park 8000m 25:14.1 8th · 1st on team 118.3 -0.116 PR ★CR R SR CSR RSR

2019 XC 107.8

Southeast Missouri (MO) · Grade Fr

Date Meet Event Result Place Rating Difficulty PR/SR Flags
2019-11-15 Oklahoma St. XC Course 10000m 35:11.5 181st · 3rd on team 108.6 -0.073 PR ★CR SR CSR
2019-11-02 Southern Illinois University Edwardsville 8000m 27:21.8 54th · 4th on team 108.0 -0.116 ★CR CSR
2019-10-18 Newman Golf Course 8000m 27:00.3 127th · 3rd on team 106.8 -0.141 PR CR SR CSR
2019-09-27 Gans Creek Recreation Area 8000m 28:00.5 59th · 2nd on team 103.5 -0.138 PR CR SR CSR
2019-09-20 Detweiller Park 7998m 28:00.6 57th · 4th on team 104.1 -0.131 ★PR ★CR SR CSR
2019-08-30 Southern Illinois 5000m 16:35 6th · 2nd on team 116.1 -0.064 ★PR ★CR R SR CSR RSR

Track & Field

2024 TF 101.4

Southeast Missouri (MO) · Grade Sr

Date Meet Event Result Place Rating Difficulty PR/SR Flags
2024-04-27 2024 Memphis Invitational 5000m 16:38.51 8th · 1st on team 99.5 -0.031
2024-04-13 Gary Wieneke Memorial 5000m 16:22.42 19th · 3rd on team 101.6 -0.031 SR
2024-03-30 Joey Haines Invitational 5000m 16:24.42 7th · 4th on team 101.5 -0.030 SR
2024-03-23 2024 Ole Miss Classic 3000m 9:12.18 8th · 4th on team 103.0 -0.037 SR RSR

2023 TF

Southeast Missouri (MO) · Grade Jr

Date Meet Event Result Place Rating Difficulty PR/SR Flags
2023-04-29 Tiger Invitational 5000m 16:11.45 9th · 3rd on team -0.037
2023-04-15 Cougar Classic 3000m 9:24.7 13th · 3rd on team -0.034
2023-04-01 2023 Joey Haines Invite 5000m 15:13.04 8th · 3rd on team -0.030 SR
2023-03-25 2023 Mississippi State Bulldog Relays 5000m 15:50.52 9th · 1st on team -0.038
2023-02-17 Redhawks Open 1mile 4:29.89 1st · 1st on team -0.040 ★PR SR
2023-02-10 Hoosier Hills Meet 3000m 9:12.73 28th · 4th on team -0.044
2023-02-03 PNC Bellarmine Classic Indoor 3000m 8:50.32 36th · 2nd on team -0.061
2023-01-20 John Gartland Invitational 5000m 15:30.51 3rd · 2nd on team -0.045 SR
2023-01-14 Redhawks Invitational 3000m 8:49.16 2nd · 2nd on team -0.040 SR

2022 TF

Southeast Missouri (MO) · Grade So

Date Meet Event Result Place Rating Difficulty PR/SR Flags
2022-05-13 Ohio Valley Conference Outdoor Championships 10-km 33:10.99 11th · 1st on team -0.025 SR
2022-05-13 Ohio Valley Conference Outdoor Championships 5000m 15:30.02 15th · 1st on team -0.025
2022-04-30 Memphis Tiger Invitational 5000m 16:34.68 11th · 3rd on team -0.037
2022-04-23 Indiana Invite 10-km 33:42.86 12th · 1st on team -0.040 SR
2022-04-16 Redbird Challenge 5000m 15:21.54 3rd · 1st on team -0.028 SR
2022-04-02 Joey Haines Invite 5000m 15:47.93 4th · 3rd on team -0.030
2022-03-26 Ole Miss Classic 1500m 4:26.9 36th · 7th on team -0.037 SR
2022-02-24 OVC Indoor Championship 5000m 15:34.16 13th · 2nd on team -0.048
2022-02-24 OVC Indoor Championship 3000m 8:52.88 13th · 3rd on team -0.048
2022-02-11 Hoosier Hills Meet 3000m 8:35.21 7th · 1st on team -0.044 ★PR SR
2022-01-29 Indiana University Relays 5000m 15:24.67 17th · 2nd on team -0.044 SR
2022-01-22 John Gartland Invitational 3000m 9:13.86 10th · 4th on team -0.045 SR
2022-01-15 Redhawks Invitational 1mile 4:47.39 9th · 8th on team -0.040 SR

2021 TF 106.6

Southeast Missouri (MO) · Grade So

Date Meet Event Result Place Rating Difficulty PR/SR Flags
2021-05-15 OVC Championship 10-km 31:54.14 13th · 1st on team 103.0 -0.041 ★PR SR
2021-05-01 Kentucky Invitational 3000m 8:59.1 11th · 1st on team 107.7 -0.037
2021-05-01 Kentucky Invitational 1500m 4:07.37 29th · 3rd on team 107.8 -0.037 ★PR SR
2021-04-17 Vanderbilt Black & Gold Invitational 5000m 15:12.57 16th · 2nd on team 107.1 -0.048 ★PR SR
2021-04-17 Vanderbilt Black & Gold Invitational 3000m 8:50.88 7th · 2nd on team 107.2 -0.048 PR SR
2021-04-03 Joey Haines Invite 800m 2:06.9 37th · 7th on team 102.8 -0.030 ★PR SR
2021-04-03 Joey Haines Invite 1500m 4:10.4 35th · 4th on team 106.9 -0.030 PR SR
2021-03-27 Ole Miss Track Classic 5000m 15:24.59 2nd · 1st on team 107.8 -0.037
2021-03-20 Bill Cornell Invite 5000m 15:22.89 5th · 1st on team 108.8 -0.030 PR SR RSR

2020 TF 104.1

Southeast Missouri (MO) · Grade Fr

Date Meet Event Result Place Rating Difficulty PR/SR Flags
2019-12-06 SEMO vs SIUE 3000m 9:26.6 1st · 1st on team 103.5 -0.040 PR SR RSR
2019-12-06 SEMO vs SIUE 1mile 4:41.69 7th · 4th on team 104.7 -0.040 PR SR RSR